Time;durP1;ratioP1;P1;durP2;ratioP2;P2;SDS_P1;SDS_P2;PMS_P1;PMS_P2;Temp;Humidity;BMP_temperature;BMP_pressure;BME280_temperature;BME280_humidity;BME280_pressure;Samples;Min_cycle;Max_cycle;Signal;HPM_P1;HPM_P2
2024/04/17 00:00:32;;;;;;;7.28;2.80;;;;;;;;;;5426076;26;20008;-61
2024/04/17 00:02:58;;;;;;;7.75;2.75;;;;;;;;;;5418785;26;20403;-63
2024/04/17 00:05:23;;;;;;;5.75;2.70;;;;;;;;;;5425379;26;20079;-63
2024/04/17 00:07:49;;;;;;;6.75;3.00;;;;;;;;;;5435920;26;20646;-61
2024/04/17 00:10:14;;;;;;;7.25;2.95;;;;;;;;;;5427797;26;20432;-63
2024/04/17 00:12:40;;;;;;;7.85;3.25;;;;;;;;;;5429434;26;20014;-61
2024/04/17 00:15:05;;;;;;;9.43;3.42;;;;;;;;;;5421965;26;20002;-62
2024/04/17 00:17:31;;;;;;;8.98;3.35;;;;;;;;;;5430285;26;20014;-61
2024/04/17 00:19:56;;;;;;;7.20;3.33;;;;;;;;;;5416569;26;20007;-63
2024/04/17 00:22:22;;;;;;;6.88;3.08;;;;;;;;;;5422876;26;20076;-64
2024/04/17 00:24:48;;;;;;;8.43;3.47;;;;;;;;;;5428482;26;20075;-66
2024/04/17 00:27:13;;;;;;;7.35;3.63;;;;;;;;;;5418509;26;20014;-62
2024/04/17 00:29:39;;;;;;;8.38;4.05;;;;;;;;;;5419229;26;20009;-66
2024/04/17 00:32:06;;;;;;;8.23;3.92;;;;;;;;;;5418512;26;20015;-61
2024/04/17 00:34:31;;;;;;;;;;;;;;;;;;5423769;26;20023;-62
2024/04/17 00:36:56;;;;;;;8.20;3.80;;;;;;;;;;5422492;26;19935;-60
2024/04/17 00:39:22;;;;;;;8.43;3.85;;;;;;;;;;5416833;26;20678;-64
2024/04/17 00:41:48;;;;;;;8.38;3.85;;;;;;;;;;5419380;26;20028;-64
2024/04/17 00:44:14;;;;;;;8.73;4.25;;;;;;;;;;5426108;26;20007;-62
2024/04/17 00:46:39;;;;;;;8.55;3.75;;;;;;;;;;5415666;26;20117;-62
2024/04/17 00:49:05;;;;;;;7.88;3.63;;;;;;;;;;5420979;26;20008;-63
2024/04/17 00:51:30;;;;;;;7.60;3.85;;;;;;;;;;5417919;26;20003;-65
2024/04/17 00:53:56;;;;;;;8.60;4.10;;;;;;;;;;5427759;26;20010;-61
2024/04/17 00:56:22;;;;;;;6.97;3.72;;;;;;;;;;5439061;26;20028;-64
2024/04/17 00:58:47;;;;;;;8.85;4.13;;;;;;;;;;5431888;26;20011;-61
2024/04/17 01:01:13;;;;;;;7.20;3.30;;;;;;;;;;5438363;26;19995;-62
2024/04/17 01:03:38;;;;;;;6.30;3.22;;;;;;;;;;5439552;26;20019;-64
2024/04/17 01:06:04;;;;;;;6.30;2.78;;;;;;;;;;5436352;26;20080;-62
2024/04/17 01:08:29;;;;;;;6.28;2.50;;;;;;;;;;5425825;26;20000;-63
2024/04/17 01:11:04;;;;;;;6.13;2.35;;;;;;;;;;5426191;26;20015;-64
2024/04/17 01:13:29;;;;;;;5.50;2.10;;;;;;;;;;5425247;26;20422;-62
2024/04/17 01:15:58;;;;;;;6.60;2.40;;;;;;;;;;5419492;26;20068;-63
2024/04/17 01:18:24;;;;;;;5.63;2.30;;;;;;;;;;5425762;26;20003;-66
2024/04/17 01:20:49;;;;;;;4.68;1.98;;;;;;;;;;5427585;26;20474;-61
2024/04/17 01:23:15;;;;;;;5.07;1.98;;;;;;;;;;5429302;26;19994;-64
2024/04/17 01:25:40;;;;;;;6.32;1.95;;;;;;;;;;5419153;26;20015;-60
2024/04/17 01:28:06;;;;;;;4.20;1.75;;;;;;;;;;5418967;26;20068;-61
2024/04/17 01:30:31;;;;;;;5.47;2.00;;;;;;;;;;5427317;26;19996;-62
2024/04/17 01:32:57;;;;;;;4.78;2.10;;;;;;;;;;5432955;26;20003;-60
2024/04/17 01:35:22;;;;;;;4.68;1.60;;;;;;;;;;5420613;26;20072;-60
2024/04/17 01:37:48;;;;;;;6.47;1.92;;;;;;;;;;5436162;26;19995;-61
2024/04/17 01:40:13;;;;;;;3.85;1.40;;;;;;;;;;5424185;26;20007;-62
2024/04/17 01:42:39;;;;;;;5.20;1.77;;;;;;;;;;5424098;26;20080;-67
2024/04/17 01:45:04;;;;;;;5.38;1.70;;;;;;;;;;5419810;26;19999;-61
2024/04/17 01:47:30;;;;;;;5.25;1.30;;;;;;;;;;5422143;26;20000;-59
2024/04/17 01:49:56;;;;;;;5.35;1.50;;;;;;;;;;5428508;26;20404;-60
2024/04/17 01:52:22;;;;;;;4.88;1.60;;;;;;;;;;5422503;26;20009;-60
2024/04/17 01:54:47;;;;;;;5.57;1.67;;;;;;;;;;5428079;26;20006;-63
2024/04/17 01:57:13;;;;;;;4.85;1.55;;;;;;;;;;5424356;26;20084;-59
2024/04/17 01:59:38;;;;;;;4.05;1.58;;;;;;;;;;5427686;26;20071;-60
2024/04/17 02:02:05;;;;;;;5.55;1.50;;;;;;;;;;5434177;26;19995;-61
2024/04/17 02:04:30;;;;;;;4.00;1.42;;;;;;;;;;5428007;26;20003;-59
2024/04/17 02:06:57;;;;;;;5.35;1.80;;;;;;;;;;5422408;26;20098;-60
2024/04/17 02:09:23;;;;;;;4.75;1.60;;;;;;;;;;5427654;26;20342;-62
2024/04/17 02:11:48;;;;;;;4.82;1.50;;;;;;;;;;5419696;26;20003;-62
2024/04/17 02:14:14;;;;;;;5.88;2.50;;;;;;;;;;5429029;26;20072;-61
2024/04/17 02:16:40;;;;;;;6.72;1.70;;;;;;;;;;5425835;26;20003;-62
2024/04/17 02:19:05;;;;;;;4.93;1.65;;;;;;;;;;5418524;26;20014;-60
2024/04/17 02:21:31;;;;;;;4.30;1.63;;;;;;;;;;5420769;26;20076;-59
2024/04/17 02:23:56;;;;;;;6.25;1.85;;;;;;;;;;5429750;26;20017;-61
2024/04/17 02:26:22;;;;;;;4.15;1.65;;;;;;;;;;5422440;26;20076;-63
2024/04/17 02:28:47;;;;;;;4.20;1.67;;;;;;;;;;5418764;26;19999;-61
2024/04/17 02:31:13;;;;;;;5.03;1.48;;;;;;;;;;5418326;26;20015;-61
2024/04/17 02:33:38;;;;;;;4.95;1.70;;;;;;;;;;5423919;26;20072;-61
2024/04/17 02:36:04;;;;;;;4.50;1.55;;;;;;;;;;5423750;26;19999;-61
2024/04/17 02:38:30;;;;;;;4.93;1.58;;;;;;;;;;5426199;26;19996;-59
2024/04/17 02:40:56;;;;;;;6.07;1.77;;;;;;;;;;5421359;26;20014;-60
2024/04/17 02:43:21;;;;;;;4.97;1.52;;;;;;;;;;5417056;26;20388;-59
2024/04/17 02:45:47;;;;;;;5.75;1.80;;;;;;;;;;5426070;26;20412;-60
2024/04/17 02:48:12;;;;;;;5.30;1.75;;;;;;;;;;5420535;26;20516;-60
2024/04/17 02:50:41;;;;;;;4.10;1.70;;;;;;;;;;5418002;26;20446;-60
2024/04/17 02:53:06;;;;;;;6.40;1.73;;;;;;;;;;5417950;26;20015;-63
2024/04/17 02:55:32;;;;;;;5.22;1.95;;;;;;;;;;5429596;26;20137;-60
2024/04/17 02:57:57;;;;;;;4.35;1.52;;;;;;;;;;5433321;26;20013;-61
2024/04/17 03:00:23;;;;;;;5.38;1.77;;;;;;;;;;5437455;26;20011;-64
2024/04/17 03:02:48;;;;;;;7.10;1.85;;;;;;;;;;5432615;26;20459;-61
2024/04/17 03:05:14;;;;;;;4.22;1.60;;;;;;;;;;5433217;26;20477;-60
2024/04/17 03:07:40;;;;;;;5.90;1.88;;;;;;;;;;5421208;26;20006;-61
2024/04/17 03:10:05;;;;;;;6.18;2.35;;;;;;;;;;5425112;26;20006;-61
2024/04/17 03:12:31;;;;;;;7.43;2.00;;;;;;;;;;5425791;26;20003;-64
2024/04/17 03:14:56;;;;;;;6.03;1.67;;;;;;;;;;5431191;26;20076;-61
2024/04/17 03:17:22;;;;;;;7.82;1.73;;;;;;;;;;5444474;26;20330;-63
2024/04/17 03:19:47;;;;;;;5.47;1.98;;;;;;;;;;5436153;26;20312;-60
2024/04/17 03:22:13;;;;;;;4.43;1.70;;;;;;;;;;5444673;26;20003;-63
2024/04/17 03:24:39;;;;;;;5.47;1.90;;;;;;;;;;5429243;26;20003;-60
2024/04/17 03:27:04;;;;;;;5.45;2.10;;;;;;;;;;5445719;26;20063;-61
2024/04/17 03:29:30;;;;;;;6.45;2.08;;;;;;;;;;5445780;26;19999;-61
2024/04/17 03:31:55;;;;;;;6.63;1.70;;;;;;;;;;5448517;26;20011;-63
2024/04/17 03:34:21;;;;;;;7.28;2.10;;;;;;;;;;5429965;26;20079;-61
2024/04/17 03:36:46;;;;;;;6.45;1.85;;;;;;;;;;5447998;26;19996;-62
2024/04/17 03:39:12;;;;;;;6.15;2.42;;;;;;;;;;5447554;26;20015;-62
2024/04/17 03:41:37;;;;;;;5.40;2.10;;;;;;;;;;5446222;26;20074;-68
2024/04/17 03:44:03;;;;;;;5.72;2.10;;;;;;;;;;5436818;26;19991;-62
2024/04/17 03:46:28;;;;;;;9.52;2.42;;;;;;;;;;5439087;26;20015;-62
2024/04/17 03:48:54;;;;;;;5.80;2.25;;;;;;;;;;5433017;26;20535;-63
2024/04/17 03:51:19;;;;;;;6.25;2.38;;;;;;;;;;5434633;26;20463;-60
2024/04/17 03:53:45;;;;;;;4.85;2.00;;;;;;;;;;5421119;26;20011;-60
2024/04/17 03:56:10;;;;;;;5.00;2.33;;;;;;;;;;5437110;26;20443;-62
2024/04/17 03:58:36;;;;;;;8.63;2.47;;;;;;;;;;5433377;26;19999;-63
2024/04/17 04:01:02;;;;;;;6.78;2.45;;;;;;;;;;5421653;26;20011;-65
2024/04/17 04:03:27;;;;;;;8.07;2.67;;;;;;;;;;5445064;26;20071;-60
2024/04/17 04:05:53;;;;;;;6.20;2.50;;;;;;;;;;5450538;26;20523;-60
2024/04/17 04:08:18;;;;;;;5.78;2.25;;;;;;;;;;5449071;26;20451;-60
2024/04/17 04:10:44;;;;;;;4.97;2.22;;;;;;;;;;5439773;26;20432;-62
2024/04/17 04:13:09;;;;;;;7.22;2.40;;;;;;;;;;5433268;26;20510;-62
2024/04/17 04:15:35;;;;;;;6.03;2.13;;;;;;;;;;5436704;26;20519;-61
2024/04/17 04:18:00;;;;;;;6.15;2.30;;;;;;;;;;5427710;26;20404;-61
2024/04/17 04:20:26;;;;;;;6.05;2.28;;;;;;;;;;5448804;26;20428;-60
2024/04/17 04:22:51;;;;;;;6.18;2.72;;;;;;;;;;5419556;26;20463;-61
2024/04/17 04:25:17;;;;;;;7.55;2.42;;;;;;;;;;5423733;26;20072;-61
2024/04/17 04:27:42;;;;;;;5.82;2.30;;;;;;;;;;5428629;26;19995;-61
2024/04/17 04:30:08;;;;;;;7.53;2.55;;;;;;;;;;5446088;26;20280;-60
2024/04/17 04:32:33;;;;;;;5.22;2.33;;;;;;;;;;5432912;26;19991;-65
2024/04/17 04:34:59;;;;;;;6.57;2.60;;;;;;;;;;5423919;26;20017;-64
2024/04/17 04:37:25;;;;;;;5.07;2.30;;;;;;;;;;5421617;26;20059;-62
2024/04/17 04:39:51;;;;;;;6.10;2.40;;;;;;;;;;5429080;26;20003;-63
2024/04/17 04:42:16;;;;;;;6.10;2.45;;;;;;;;;;5433583;26;19999;-64
2024/04/17 04:44:42;;;;;;;6.82;2.38;;;;;;;;;;5433559;26;20007;-61
2024/04/17 04:47:08;;;;;;;5.95;2.22;;;;;;;;;;5441590;26;19995;-62
2024/04/17 04:49:33;;;;;;;6.00;2.30;;;;;;;;;;5435217;26;20069;-64
2024/04/17 04:51:59;;;;;;;7.28;2.30;;;;;;;;;;5410461;26;20004;-63
2024/04/17 04:54:24;;;;;;;6.18;2.13;;;;;;;;;;5421205;26;20006;-61
2024/04/17 04:56:52;;;;;;;6.35;2.22;;;;;;;;;;5413298;26;20000;-64
2024/04/17 04:59:18;;;;;;;6.45;2.22;;;;;;;;;;5434054;26;20010;-62
2024/04/17 05:01:43;;;;;;;5.50;2.30;;;;;;;;;;5411006;26;20075;-62
2024/04/17 05:04:09;;;;;;;6.53;2.30;;;;;;;;;;5426486;26;20111;-65
2024/04/17 05:06:35;;;;;;;6.15;2.05;;;;;;;;;;5417905;26;20018;-60
2024/04/17 05:09:00;;;;;;;6.88;2.20;;;;;;;;;;5439908;26;20074;-64
2024/04/17 05:11:26;;;;;;;5.55;2.08;;;;;;;;;;5426708;26;19999;-62
2024/04/17 05:13:51;;;;;;;6.43;2.25;;;;;;;;;;5436488;26;20009;-64
2024/04/17 05:16:17;;;;;;;5.50;2.13;;;;;;;;;;5434073;26;20010;-61
2024/04/17 05:18:43;;;;;;;5.65;2.20;;;;;;;;;;5436281;26;20067;-60
2024/04/17 05:21:08;;;;;;;5.53;2.03;;;;;;;;;;5436236;26;20018;-60
2024/04/17 05:23:34;;;;;;;6.47;2.20;;;;;;;;;;5438181;26;19998;-61
2024/04/17 05:25:59;;;;;;;5.85;1.92;;;;;;;;;;5430877;26;20067;-64
2024/04/17 05:28:25;;;;;;;5.07;1.65;;;;;;;;;;5443947;26;20218;-64
2024/04/17 05:30:59;;;;;;;5.85;2.20;;;;;;;;;;5437955;26;19998;-61
2024/04/17 05:33:25;;;;;;;5.93;2.17;;;;;;;;;;5441005;26;20040;-60
2024/04/17 05:35:50;;;;;;;5.88;2.05;;;;;;;;;;5448138;26;20013;-61
2024/04/17 05:38:16;;;;;;;5.97;1.98;;;;;;;;;;5441935;26;20003;-63
2024/04/17 05:40:45;;;;;;;5.20;1.75;;;;;;;;;;5440181;26;20048;-60
2024/04/17 05:43:10;;;;;;;5.05;1.80;;;;;;;;;;5449929;26;19992;-61
2024/04/17 05:45:36;;;;;;;5.80;1.90;;;;;;;;;;5443201;26;20005;-62
2024/04/17 05:48:01;;;;;;;4.75;1.90;;;;;;;;;;5427311;26;20006;-64
2024/04/17 05:50:27;;;;;;;5.53;1.98;;;;;;;;;;5452399;26;20026;-63
2024/04/17 05:52:52;;;;;;;4.75;1.73;;;;;;;;;;5439786;26;20004;-63
2024/04/17 05:55:18;;;;;;;5.25;1.60;;;;;;;;;;5445118;26;20004;-62
2024/04/17 05:57:43;;;;;;;4.85;1.30;;;;;;;;;;5429998;26;20045;-62
2024/04/17 06:00:09;;;;;;;5.53;1.40;;;;;;;;;;5439583;26;20010;-62
2024/04/17 06:02:35;;;;;;;6.82;1.55;;;;;;;;;;5433722;26;20023;-64
2024/04/17 06:05:01;;;;;;;5.50;1.75;;;;;;;;;;5431797;26;20010;-62
2024/04/17 06:07:26;;;;;;;5.25;1.73;;;;;;;;;;5436598;26;20010;-64
2024/04/17 06:09:52;;;;;;;4.18;1.50;;;;;;;;;;5424851;26;20105;-62
2024/04/17 06:12:17;;;;;;;5.35;1.42;;;;;;;;;;5444072;26;19990;-68
2024/04/17 06:14:43;;;;;;;4.75;1.55;;;;;;;;;;5444576;26;20416;-61
2024/04/17 06:17:08;;;;;;;6.20;1.50;;;;;;;;;;5424473;26;20072;-60
2024/04/17 06:19:34;;;;;;;5.28;1.70;;;;;;;;;;5441917;26;19995;-62
2024/04/17 06:22:00;;;;;;;5.78;1.60;;;;;;;;;;5434988;26;20100;-62
2024/04/17 06:24:25;;;;;;;5.72;1.85;;;;;;;;;;5433672;26;20473;-62
2024/04/17 06:26:51;;;;;;;5.22;1.52;;;;;;;;;;5432826;26;20011;-64
2024/04/17 06:29:17;;;;;;;3.80;1.40;;;;;;;;;;5437031;26;20006;-67
2024/04/17 06:31:42;;;;;;;4.45;1.75;;;;;;;;;;5442800;26;20009;-61
2024/04/17 06:34:08;;;;;;;5.43;1.58;;;;;;;;;;5449055;26;20003;-62
2024/04/17 06:36:33;;;;;;;4.30;1.50;;;;;;;;;;5449890;26;20400;-65
2024/04/17 06:39:00;;;;;;;4.97;1.58;;;;;;;;;;5440676;26;20017;-61
2024/04/17 06:41:26;;;;;;;5.68;1.50;;;;;;;;;;5447452;26;20000;-63
2024/04/17 06:43:51;;;;;;;3.80;1.40;;;;;;;;;;5435404;26;19998;-62
2024/04/17 06:46:17;;;;;;;5.55;1.63;;;;;;;;;;5430329;26;20015;-63
2024/04/17 06:48:42;;;;;;;4.30;1.52;;;;;;;;;;5436941;26;20079;-62
2024/04/17 06:51:08;;;;;;;4.65;1.70;;;;;;;;;;5450616;26;19995;-61
2024/04/17 06:53:34;;;;;;;5.38;1.60;;;;;;;;;;5445131;26;20399;-61
2024/04/17 06:55:59;;;;;;;4.78;1.63;;;;;;;;;;5443777;26;19999;-66
2024/04/17 06:58:25;;;;;;;5.30;1.67;;;;;;;;;;5446369;26;20006;-62
2024/04/17 07:00:52;;;;;;;5.25;1.70;;;;;;;;;;5449874;26;20010;-60
2024/04/17 07:03:17;;;;;;;6.47;1.30;;;;;;;;;;5449245;26;20377;-63
2024/04/17 07:05:43;;;;;;;5.07;1.52;;;;;;;;;;5451407;26;20052;-61
2024/04/17 07:08:08;;;;;;;5.75;1.70;;;;;;;;;;5450242;26;19991;-62
2024/04/17 07:10:34;;;;;;;4.22;1.55;;;;;;;;;;5445063;26;20006;-60
2024/04/17 07:13:00;;;;;;;4.20;1.70;;;;;;;;;;5439326;26;20067;-63
2024/04/17 07:15:26;;;;;;;4.68;1.50;;;;;;;;;;5449264;26;19999;-64
2024/04/17 07:17:51;;;;;;;4.75;1.40;;;;;;;;;;5449578;26;20079;-63
2024/04/17 07:20:17;;;;;;;4.00;1.30;;;;;;;;;;5448056;26;20071;-61
2024/04/17 07:22:43;;;;;;;4.18;1.60;;;;;;;;;;5435375;26;19994;-61
2024/04/17 07:25:10;;;;;;;5.30;1.58;;;;;;;;;;5448905;26;20010;-65
2024/04/17 07:27:36;;;;;;;3.50;1.40;;;;;;;;;;5425868;26;19999;-61
2024/04/17 07:30:01;;;;;;;4.35;1.45;;;;;;;;;;5449606;26;20477;-62
2024/04/17 07:32:27;;;;;;;7.88;1.70;;;;;;;;;;5450762;26;20404;-60
2024/04/17 07:34:53;;;;;;;4.30;1.50;;;;;;;;;;5446356;26;19998;-61
2024/04/17 07:37:19;;;;;;;3.88;1.23;;;;;;;;;;5450698;26;19999;-64
2024/04/17 07:39:44;;;;;;;4.93;1.50;;;;;;;;;;5449085;26;20416;-65
2024/04/17 07:42:10;;;;;;;6.55;1.88;;;;;;;;;;5450094;26;19995;-62
2024/04/17 07:44:35;;;;;;;5.95;1.73;;;;;;;;;;5448076;26;20533;-60
2024/04/17 07:47:01;;;;;;;3.92;1.27;;;;;;;;;;5450595;26;20071;-64
2024/04/17 07:49:27;;;;;;;5.57;1.85;;;;;;;;;;5439707;26;20011;-61
2024/04/17 07:51:53;;;;;;;;;;;;;;;;;;5457098;26;20038;-64
2024/04/17 07:54:18;;;;;;;4.67;1.40;;;;;;;;;;5444129;26;19925;-60
2024/04/17 07:56:44;;;;;;;5.13;1.20;;;;;;;;;;5420985;26;20326;-59
2024/04/17 07:59:09;;;;;;;3.35;1.40;;;;;;;;;;5424966;26;20082;-61
2024/04/17 08:01:35;;;;;;;3.22;1.13;;;;;;;;;;5436540;26;20068;-63
2024/04/17 08:04:00;;;;;;;5.90;1.30;;;;;;;;;;5434905;26;20001;-60
2024/04/17 08:06:26;;;;;;;5.75;1.25;;;;;;;;;;5449811;26;20010;-62
2024/04/17 08:08:51;;;;;;;5.55;1.58;;;;;;;;;;5448365;26;20075;-61
2024/04/17 08:11:17;;;;;;;7.15;1.65;;;;;;;;;;5433963;26;20003;-63
2024/04/17 08:13:42;;;;;;;4.38;1.23;;;;;;;;;;5424422;26;20022;-62
2024/04/17 08:16:08;;;;;;;4.45;1.42;;;;;;;;;;5448310;26;20003;-62
2024/04/17 08:18:33;;;;;;;5.53;1.70;;;;;;;;;;5444443;26;20002;-60
2024/04/17 08:20:59;;;;;;;4.65;1.27;;;;;;;;;;5448397;26;20048;-62
2024/04/17 08:23:25;;;;;;;4.03;1.40;;;;;;;;;;5436907;26;20000;-60
2024/04/17 08:25:50;;;;;;;4.30;1.30;;;;;;;;;;5446378;26;19994;-59
2024/04/17 08:28:17;;;;;;;3.60;1.20;;;;;;;;;;5435899;26;19999;-67
2024/04/17 08:30:42;;;;;;;4.13;1.25;;;;;;;;;;5452603;26;19995;-60
2024/04/17 08:33:08;;;;;;;4.88;1.20;;;;;;;;;;5451030;26;20066;-60
2024/04/17 08:35:37;;;;;;;3.63;1.20;;;;;;;;;;5433627;26;20001;-63
2024/04/17 08:38:02;;;;;;;3.25;1.10;;;;;;;;;;5447763;26;20013;-60
2024/04/17 08:40:28;;;;;;;3.90;1.13;;;;;;;;;;5448391;26;20007;-60
2024/04/17 08:42:54;;;;;;;4.63;1.23;;;;;;;;;;5447207;26;20014;-69
2024/04/17 08:45:33;;;;;;;5.55;1.15;;;;;;;;;;5443269;26;20007;-61
2024/04/17 08:48:01;;;;;;;3.90;1.10;;;;;;;;;;5448449;26;20006;-62
2024/04/17 08:50:30;;;;;;;3.75;1.00;;;;;;;;;;5434087;26;20052;-61
2024/04/17 08:52:58;;;;;;;3.58;1.00;;;;;;;;;;5448020;26;20444;-62
2024/04/17 08:55:24;;;;;;;4.57;1.10;;;;;;;;;;5444941;26;20055;-62
2024/04/17 08:57:50;;;;;;;3.17;1.00;;;;;;;;;;5437623;26;19999;-60
2024/04/17 09:00:15;;;;;;;4.57;1.15;;;;;;;;;;5448278;26;19995;-62
2024/04/17 09:02:42;;;;;;;6.07;1.35;;;;;;;;;;5448018;26;20074;-63
2024/04/17 09:05:07;;;;;;;;;;;;;;;;;;5424803;26;20008;-61
2024/04/17 09:07:36;;;;;;;4.20;1.00;;;;;;;;;;5446517;26;20363;-62
2024/04/17 09:10:01;;;;;;;6.03;1.30;;;;;;;;;;5433369;26;20354;-60
2024/04/17 09:12:27;;;;;;;3.42;0.93;;;;;;;;;;5444111;26;20003;-62
2024/04/17 09:14:54;;;;;;;4.57;1.27;;;;;;;;;;5439527;26;20003;-63
2024/04/17 09:17:19;;;;;;;3.15;1.00;;;;;;;;;;5450756;26;20006;-62
2024/04/17 09:19:44;;;;;;;4.25;1.08;;;;;;;;;;5449307;26;20013;-62
2024/04/17 09:22:10;;;;;;;3.90;1.02;;;;;;;;;;5447889;26;20002;-63
2024/04/17 09:24:39;;;;;;;5.25;1.10;;;;;;;;;;5436303;26;20010;-62
2024/04/17 09:27:05;;;;;;;3.67;1.17;;;;;;;;;;5450260;26;20014;-62
2024/04/17 09:29:32;;;;;;;5.30;1.10;;;;;;;;;;5444553;26;20011;-62
2024/04/17 09:31:58;;;;;;;3.95;1.00;;;;;;;;;;5452539;26;19999;-61
2024/04/17 09:34:23;;;;;;;3.15;0.95;;;;;;;;;;5451315;26;19998;-61
2024/04/17 09:36:49;;;;;;;5.22;1.17;;;;;;;;;;5452300;26;20007;-64
2024/04/17 09:39:14;;;;;;;3.72;1.08;;;;;;;;;;5450948;26;20007;-62
2024/04/17 09:41:41;;;;;;;4.20;1.08;;;;;;;;;;5435999;26;20011;-61
2024/04/17 09:44:08;;;;;;;3.67;1.15;;;;;;;;;;5451097;26;20011;-61
2024/04/17 09:46:35;;;;;;;5.13;1.17;;;;;;;;;;5452208;26;20075;-62
2024/04/17 09:49:04;;;;;;;6.43;1.27;;;;;;;;;;5450972;26;19998;-62
2024/04/17 09:51:31;;;;;;;4.70;1.20;;;;;;;;;;5452099;26;20031;-62
2024/04/17 09:54:02;;;;;;;3.92;1.20;;;;;;;;;;5450849;26;20011;-66
2024/04/17 09:56:28;;;;;;;4.90;1.20;;;;;;;;;;5461862;26;19998;-65
2024/04/17 09:58:53;;;;;;;3.70;1.13;;;;;;;;;;5461002;26;20003;-61
2024/04/17 10:01:19;;;;;;;4.88;1.20;;;;;;;;;;5452085;26;20074;-63
2024/04/17 10:03:45;;;;;;;4.68;1.33;;;;;;;;;;5453914;26;20446;-63
2024/04/17 10:06:12;;;;;;;4.88;1.20;;;;;;;;;;5446668;26;20454;-61
2024/04/17 10:08:38;;;;;;;4.60;1.30;;;;;;;;;;5451084;26;20068;-62
2024/04/17 10:11:04;;;;;;;6.45;1.35;;;;;;;;;;5452470;26;20007;-62
2024/04/17 10:13:31;;;;;;;6.22;1.08;;;;;;;;;;5432155;26;20022;-61
2024/04/17 10:15:57;;;;;;;3.95;1.00;;;;;;;;;;5442492;26;20097;-63
2024/04/17 10:18:22;;;;;;;4.18;1.10;;;;;;;;;;5451562;26;20048;-59
2024/04/17 10:20:48;;;;;;;3.78;1.10;;;;;;;;;;5447247;26;20462;-63
2024/04/17 10:23:14;;;;;;;6.28;1.40;;;;;;;;;;5439480;26;20076;-63
2024/04/17 10:25:46;;;;;;;4.80;1.40;;;;;;;;;;5450159;26;20009;-61
2024/04/17 10:28:13;;;;;;;5.90;1.38;;;;;;;;;;5433582;26;20007;-60
2024/04/17 10:30:39;;;;;;;6.90;1.58;;;;;;;;;;5448716;26;20013;-61
2024/04/17 10:33:16;;;;;;;4.53;1.40;;;;;;;;;;5443901;26;19996;-61
2024/04/17 10:35:42;;;;;;;3.80;1.00;;;;;;;;;;5421809;26;20332;-60
2024/04/17 10:38:08;;;;;;;4.03;1.25;;;;;;;;;;5435531;26;20039;-62
2024/04/17 10:40:33;;;;;;;4.78;1.30;;;;;;;;;;5420592;26;20066;-65
2024/04/17 10:42:59;;;;;;;3.83;1.00;;;;;;;;;;5449886;26;19998;-61
2024/04/17 10:45:24;;;;;;;4.47;1.38;;;;;;;;;;5442916;26;19999;-62
2024/04/17 10:47:50;;;;;;;4.25;1.40;;;;;;;;;;5444085;26;19995;-62
2024/04/17 10:50:17;;;;;;;5.28;1.20;;;;;;;;;;5445188;26;20018;-70
2024/04/17 10:52:43;;;;;;;3.83;1.30;;;;;;;;;;5447953;26;20009;-60
2024/04/17 10:55:10;;;;;;;4.63;1.45;;;;;;;;;;5449248;26;20010;-63
2024/04/17 10:57:35;;;;;;;4.43;1.00;;;;;;;;;;5436803;26;20494;-62
2024/04/17 11:00:01;;;;;;;4.47;1.10;;;;;;;;;;5433629;26;20071;-61
2024/04/17 11:02:27;;;;;;;4.50;0.93;;;;;;;;;;5437708;26;20324;-65
2024/04/17 11:04:53;;;;;;;;;;;;;;;;;;5442325;26;20025;-61
2024/04/17 11:07:19;;;;;;;5.63;1.25;;;;;;;;;;5434885;26;19925;-61
2024/04/17 11:09:45;;;;;;;4.07;1.10;;;;;;;;;;5448662;26;19998;-62
2024/04/17 11:12:15;;;;;;;4.70;0.90;;;;;;;;;;5447604;26;20013;-62
2024/04/17 11:14:40;;;;;;;2.97;1.10;;;;;;;;;;5431801;26;19999;-61
2024/04/17 11:17:06;;;;;;;5.05;1.20;;;;;;;;;;5452202;26;19998;-64
2024/04/17 11:19:31;;;;;;;4.65;1.33;;;;;;;;;;5453069;26;20003;-63
2024/04/17 11:21:57;;;;;;;3.13;0.98;;;;;;;;;;5448432;26;20055;-62
2024/04/17 11:24:23;;;;;;;5.25;1.10;;;;;;;;;;5440118;26;19996;-61
2024/04/17 11:26:48;;;;;;;3.92;1.13;;;;;;;;;;5451852;26;20056;-61
2024/04/17 11:29:15;;;;;;;6.32;1.27;;;;;;;;;;5445288;26;20007;-66
2024/04/17 11:31:40;;;;;;;5.60;1.10;;;;;;;;;;5438867;26;20010;-60
2024/04/17 11:34:16;;;;;;;4.05;1.30;;;;;;;;;;5432632;26;20002;-62
2024/04/17 11:36:42;;;;;;;4.30;1.23;;;;;;;;;;5437726;26;19994;-61
2024/04/17 11:39:07;;;;;;;4.38;1.05;;;;;;;;;;5440391;26;20067;-61
2024/04/17 11:41:33;;;;;;;4.25;1.38;;;;;;;;;;5442432;26;19995;-62
2024/04/17 11:43:58;;;;;;;3.88;1.02;;;;;;;;;;5442142;26;20011;-62
2024/04/17 11:46:24;;;;;;;6.95;1.80;;;;;;;;;;5433967;26;20075;-61
2024/04/17 11:48:49;;;;;;;5.47;1.25;;;;;;;;;;5442364;26;20003;-61
2024/04/17 11:51:15;;;;;;;4.70;1.15;;;;;;;;;;5451693;26;20412;-62
2024/04/17 11:53:41;;;;;;;4.65;1.20;;;;;;;;;;5442964;26;20393;-61
2024/04/17 11:56:06;;;;;;;2.97;1.00;;;;;;;;;;5431845;26;20011;-62
2024/04/17 11:58:32;;;;;;;3.83;0.98;;;;;;;;;;5433470;26;19995;-62
2024/04/17 12:00:57;;;;;;;6.38;1.20;;;;;;;;;;5437676;26;20002;-60
2024/04/17 12:03:23;;;;;;;2.67;0.77;;;;;;;;;;5448036;26;20154;-66
2024/04/17 12:05:49;;;;;;;2.50;0.70;;;;;;;;;;5441676;26;20022;-63
2024/04/17 12:08:14;;;;;;;3.63;1.00;;;;;;;;;;5440262;26;19996;-62
2024/04/17 12:10:40;;;;;;;2.50;0.70;;;;;;;;;;5453263;26;19995;-61
2024/04/17 12:13:05;;;;;;;2.72;0.75;;;;;;;;;;5452343;26;20014;-62
2024/04/17 12:15:31;;;;;;;2.80;0.75;;;;;;;;;;5430330;26;20459;-60
2024/04/17 12:17:56;;;;;;;3.33;0.68;;;;;;;;;;5439009;26;20009;-65
2024/04/17 12:20:22;;;;;;;4.32;1.00;;;;;;;;;;5450320;26;20003;-63
2024/04/17 12:22:47;;;;;;;4.20;0.82;;;;;;;;;;5446361;26;20071;-62
2024/04/17 12:27:57;;;;;;;2.22;0.70;;;;;;;;;;5442671;26;20350;-62
2024/04/17 12:30:23;;;;;;;3.25;0.90;;;;;;;;;;5437027;26;20002;-60
2024/04/17 12:32:48;;;;;;;2.13;0.65;;;;;;;;;;5448974;26;20066;-61
2024/04/17 12:35:14;;;;;;;2.83;0.80;;;;;;;;;;5451313;26;20047;-62
2024/04/17 12:37:40;;;;;;;3.28;0.80;;;;;;;;;;5441410;26;20450;-61
2024/04/17 12:40:06;;;;;;;2.63;0.80;;;;;;;;;;5447806;26;20009;-61
2024/04/17 12:42:31;;;;;;;5.55;1.13;;;;;;;;;;5447875;26;20049;-63
2024/04/17 12:44:57;;;;;;;5.20;0.90;;;;;;;;;;5446509;26;20349;-63
2024/04/17 12:47:23;;;;;;;3.60;0.70;;;;;;;;;;5428494;26;20424;-61
2024/04/17 12:49:48;;;;;;;2.25;0.60;;;;;;;;;;5447763;26;20048;-61
2024/04/17 12:52:14;;;;;;;2.88;0.90;;;;;;;;;;5446181;26;20078;-63
2024/04/17 12:54:39;;;;;;;3.85;0.80;;;;;;;;;;5434479;26;20454;-61
2024/04/17 12:57:07;;;;;;;5.32;1.15;;;;;;;;;;5449563;26;20661;-61
2024/04/17 12:59:33;;;;;;;8.55;0.95;;;;;;;;;;5430133;26;20050;-61
2024/04/17 13:01:58;;;;;;;3.10;0.80;;;;;;;;;;5417601;26;20003;-62
2024/04/17 13:04:24;;;;;;;3.70;0.80;;;;;;;;;;5447017;26;20006;-63
2024/04/17 13:06:50;;;;;;;1.90;0.68;;;;;;;;;;5449549;26;20007;-61
2024/04/17 13:09:16;;;;;;;2.65;0.80;;;;;;;;;;5444046;26;20015;-62
2024/04/17 13:11:41;;;;;;;6.40;0.90;;;;;;;;;;5449518;26;20067;-61
2024/04/17 13:14:07;;;;;;;3.53;0.98;;;;;;;;;;5446573;26;19995;-61
2024/04/17 13:16:32;;;;;;;3.95;0.80;;;;;;;;;;5437858;26;20003;-61
2024/04/17 13:18:58;;;;;;;3.70;1.00;;;;;;;;;;5445651;26;20071;-61
2024/04/17 13:21:23;;;;;;;2.60;0.80;;;;;;;;;;5413253;26;19991;-61
2024/04/17 13:23:49;;;;;;;3.33;1.00;;;;;;;;;;5421549;26;20003;-62
2024/04/17 13:26:14;;;;;;;4.45;1.02;;;;;;;;;;5444790;26;20312;-63
2024/04/17 13:28:40;;;;;;;3.83;1.00;;;;;;;;;;5447282;26;20393;-62
2024/04/17 13:31:06;;;;;;;3.13;0.80;;;;;;;;;;5449024;26;20403;-62
2024/04/17 13:33:32;;;;;;;3.83;0.93;;;;;;;;;;5441660;26;20036;-61
2024/04/17 13:35:58;;;;;;;2.72;1.00;;;;;;;;;;5444189;26;20512;-61
2024/04/17 13:38:24;;;;;;;3.40;0.90;;;;;;;;;;5449070;26;20386;-61
2024/04/17 13:40:56;;;;;;;4.25;1.15;;;;;;;;;;5449165;26;19995;-60
2024/04/17 13:43:21;;;;;;;3.92;1.10;;;;;;;;;;5443551;26;20023;-63
2024/04/17 13:45:47;;;;;;;5.13;1.30;;;;;;;;;;5437405;26;20144;-60
2024/04/17 13:48:12;;;;;;;3.95;1.13;;;;;;;;;;5443773;26;19999;-64
2024/04/17 13:50:38;;;;;;;4.13;1.00;;;;;;;;;;5446850;26;20063;-62
2024/04/17 13:53:04;;;;;;;4.55;1.10;;;;;;;;;;5449946;26;20011;-60
2024/04/17 13:55:32;;;;;;;3.47;1.00;;;;;;;;;;5448977;26;19998;-61
2024/04/17 13:57:58;;;;;;;6.20;1.30;;;;;;;;;;5437219;26;20003;-61
2024/04/17 14:00:23;;;;;;;7.53;1.13;;;;;;;;;;5431863;26;20075;-60
2024/04/17 14:02:49;;;;;;;4.22;0.90;;;;;;;;;;5416627;26;20003;-61
2024/04/17 14:05:14;;;;;;;3.90;1.33;;;;;;;;;;5447917;26;19995;-61
2024/04/17 14:07:40;;;;;;;3.47;1.13;;;;;;;;;;5447202;26;20128;-62
2024/04/17 14:10:06;;;;;;;5.07;1.10;;;;;;;;;;5435139;26;19999;-61
2024/04/17 14:12:31;;;;;;;3.60;1.02;;;;;;;;;;5421072;26;20012;-61
2024/04/17 14:14:57;;;;;;;4.60;1.52;;;;;;;;;;5446998;26;20070;-63
2024/04/17 14:17:22;;;;;;;3.97;1.10;;;;;;;;;;5445792;26;20011;-60
2024/04/17 14:19:48;;;;;;;4.50;1.10;;;;;;;;;;5427815;26;20003;-62
2024/04/17 14:22:13;;;;;;;3.80;0.80;;;;;;;;;;5433591;26;20010;-63
2024/04/17 14:24:39;;;;;;;5.43;0.90;;;;;;;;;;5445090;26;20004;-60
2024/04/17 14:27:04;;;;;;;3.30;0.80;;;;;;;;;;5439452;26;20011;-61
2024/04/17 14:29:32;;;;;;;3.38;0.93;;;;;;;;;;5433818;26;20018;-63
2024/04/17 14:31:57;;;;;;;2.97;0.98;;;;;;;;;;5425807;26;20033;-65
2024/04/17 14:34:23;;;;;;;3.35;0.93;;;;;;;;;;5435460;26;20395;-61
2024/04/17 14:36:48;;;;;;;3.47;0.93;;;;;;;;;;5436717;26;20312;-63